createdAt,value
2018-06-13T00:00:17.949Z,62.90
2018-06-13T00:02:46.838Z,63.19
2018-06-13T00:05:15.766Z,63.73
2018-06-13T00:07:44.569Z,63.80
2018-06-13T00:10:13.410Z,62.99
2018-06-13T00:12:42.282Z,63.99
2018-06-13T00:15:11.090Z,63.02
2018-06-13T00:17:40.216Z,63.33
2018-06-13T00:20:09.185Z,63.38
2018-06-13T00:22:38.573Z,62.81
2018-06-13T00:25:07.487Z,63.17
2018-06-13T00:27:36.266Z,64.00
2018-06-13T00:30:05.136Z,63.06
2018-06-13T00:32:34.117Z,63.05
2018-06-13T00:35:04.863Z,62.80
2018-06-13T00:37:33.774Z,62.93
2018-06-13T00:40:02.641Z,63.52
2018-06-13T00:42:31.450Z,62.94
2018-06-13T00:45:00.309Z,61.96
2018-06-13T00:47:29.105Z,62.52
2018-06-13T00:49:57.988Z,63.05
2018-06-13T00:52:26.850Z,63.15
2018-06-13T00:54:55.878Z,64.19
2018-06-13T00:57:24.889Z,64.72
2018-06-13T00:59:53.781Z,64.51
2018-06-13T01:02:22.669Z,63.40
2018-06-13T01:04:51.427Z,62.74
2018-06-13T01:07:20.558Z,63.11
2018-06-13T01:09:49.313Z,62.62
2018-06-13T01:12:19.105Z,61.73
2018-06-13T01:14:47.946Z,61.83
2018-06-13T01:17:16.762Z,61.08
2018-06-13T01:19:45.568Z,61.59
2018-06-13T01:22:14.333Z,60.78
2018-06-13T01:24:43.111Z,61.07
2018-06-13T01:27:11.946Z,60.28
2018-06-13T01:29:40.799Z,59.61
2018-06-13T01:32:09.547Z,61.86
2018-06-13T01:34:38.479Z,60.57
2018-06-13T01:37:07.413Z,60.59
2018-06-13T01:39:36.321Z,60.54
2018-06-13T01:42:05.165Z,61.21
2018-06-13T01:44:33.904Z,60.37
2018-06-13T01:47:02.891Z,60.35
2018-06-13T01:49:31.797Z,60.85
2018-06-13T01:52:00.705Z,60.98
2018-06-13T01:54:29.688Z,61.46
2018-06-13T01:56:58.654Z,60.46
2018-06-13T01:59:27.774Z,60.82
2018-06-13T02:01:56.849Z,60.91
2018-06-13T02:04:25.678Z,61.47
2018-06-13T02:06:54.433Z,60.90
2018-06-13T02:09:23.214Z,60.78
2018-06-13T02:11:52.244Z,60.26
2018-06-13T02:14:21.632Z,60.58
2018-06-13T02:16:50.455Z,60.87
2018-06-13T02:19:19.240Z,59.89
2018-06-13T02:21:49.959Z,60.53
2018-06-13T02:24:19.156Z,61.25
2018-06-13T02:26:48.129Z,61.60
2018-06-13T02:29:16.810Z,59.94
2018-06-13T02:31:45.594Z,60.30
2018-06-13T02:34:14.401Z,61.29
2018-06-13T02:36:43.315Z,61.23
2018-06-13T02:39:12.243Z,61.22
2018-06-13T02:41:41.156Z,60.48
2018-06-13T02:44:09.931Z,61.17
2018-06-13T02:46:38.726Z,60.78
2018-06-13T02:49:07.410Z,60.70
2018-06-13T02:51:36.661Z,61.04
2018-06-13T02:54:05.444Z,61.22
2018-06-13T02:56:34.299Z,60.72
2018-06-13T02:59:03.292Z,61.28
2018-06-13T03:01:32.182Z,61.52
2018-06-13T03:04:00.992Z,60.74
2018-06-13T03:06:29.760Z,61.52
2018-06-13T03:08:58.638Z,61.84
2018-06-13T03:11:27.338Z,61.32
2018-06-13T03:13:56.569Z,61.45
2018-06-13T03:16:25.347Z,60.77
2018-06-13T03:18:54.485Z,62.63
2018-06-13T03:21:23.238Z,61.94
2018-06-13T03:23:52.109Z,61.44
2018-06-13T03:26:20.922Z,61.69
2018-06-13T03:28:49.727Z,61.68
2018-06-13T03:31:18.665Z,62.53
2018-06-13T03:33:47.616Z,62.23
2018-06-13T03:36:16.460Z,63.71
2018-06-13T03:38:45.254Z,65.42
2018-06-13T03:41:14.097Z,66.57
2018-06-13T03:43:42.945Z,65.82
2018-06-13T03:46:11.839Z,66.05
2018-06-13T03:48:41.141Z,67.86
2018-06-13T03:51:10.383Z,68.30
2018-06-13T03:53:39.304Z,67.84
2018-06-13T03:56:08.336Z,67.18
2018-06-13T03:58:37.342Z,66.37
2018-06-13T04:01:06.198Z,66.35
2018-06-13T04:03:35.061Z,66.07
2018-06-13T04:06:04.068Z,65.41
2018-06-13T04:08:33.585Z,65.00
2018-06-13T04:11:02.367Z,64.71
2018-06-13T04:13:31.277Z,66.11
2018-06-13T04:15:59.945Z,65.36
2018-06-13T04:18:28.870Z,65.35
2018-06-13T04:20:57.759Z,63.52
2018-06-13T04:23:26.855Z,63.40
2018-06-13T04:25:55.721Z,62.93
2018-06-13T04:28:24.482Z,62.28
2018-06-13T04:30:53.363Z,63.62
2018-06-13T04:33:22.065Z,63.27
2018-06-13T04:35:50.939Z,62.79
2018-06-13T04:38:19.759Z,64.27
2018-06-13T04:40:48.670Z,63.29
2018-06-13T04:43:17.678Z,62.97
2018-06-13T04:45:46.847Z,62.77
2018-06-13T04:48:15.695Z,63.14
2018-06-13T04:50:44.622Z,63.42
2018-06-13T04:53:13.333Z,62.49
2018-06-13T04:55:42.209Z,61.97
2018-06-13T04:58:11.180Z,62.31
2018-06-13T05:00:40.309Z,61.75
2018-06-13T05:03:09.311Z,62.52
2018-06-13T05:05:38.193Z,61.99
2018-06-13T05:08:07.197Z,62.47
2018-06-13T05:10:36.121Z,62.59
2018-06-13T05:13:05.009Z,62.54
2018-06-13T05:15:33.995Z,61.57
2018-06-13T05:18:02.793Z,61.48
2018-06-13T05:20:31.582Z,60.68
2018-06-13T05:23:00.434Z,59.80
2018-06-13T05:25:29.443Z,60.35
2018-06-13T05:27:58.285Z,60.13
2018-06-13T05:30:27.501Z,59.86
2018-06-13T05:32:56.419Z,60.35
2018-06-13T05:35:25.169Z,60.07
2018-06-13T05:37:54.155Z,60.42
2018-06-13T05:40:23.057Z,60.31
2018-06-13T05:42:52.015Z,60.42
2018-06-13T05:45:20.857Z,60.70
2018-06-13T05:47:49.657Z,59.38
2018-06-13T05:50:18.556Z,60.08
2018-06-13T05:52:47.441Z,61.39
2018-06-13T05:55:16.225Z,61.26
2018-06-13T05:57:45.029Z,60.54
2018-06-13T06:00:14.086Z,61.92
2018-06-13T06:02:42.883Z,61.25
2018-06-13T06:05:11.581Z,60.19
2018-06-13T06:07:40.602Z,60.25
2018-06-13T06:10:09.555Z,60.23
2018-06-13T06:12:38.413Z,61.04
2018-06-13T06:15:07.236Z,60.37
2018-06-13T06:17:36.876Z,60.19
2018-06-13T06:20:07.705Z,60.86
2018-06-13T06:22:36.574Z,61.20
2018-06-13T06:25:05.530Z,59.93
2018-06-13T06:27:34.474Z,59.08
2018-06-13T06:30:03.590Z,59.72
2018-06-13T06:32:32.327Z,59.65
2018-06-13T06:35:01.040Z,59.71
2018-06-13T06:37:29.940Z,59.42
2018-06-13T06:39:58.834Z,60.04
2018-06-13T06:42:27.767Z,59.22
2018-06-13T06:44:56.532Z,59.59
2018-06-13T06:47:25.898Z,59.70
2018-06-13T06:49:54.715Z,61.18
2018-06-13T06:52:24.087Z,60.62
2018-06-13T06:54:52.761Z,60.70
2018-06-13T06:57:21.567Z,59.75
2018-06-13T06:59:50.532Z,59.80
2018-06-13T07:02:19.451Z,59.92
2018-06-13T07:04:48.349Z,60.13
2018-06-13T07:07:17.207Z,58.68
2018-06-13T07:09:46.019Z,59.30
2018-06-13T07:12:15.350Z,60.46
2018-06-13T07:14:44.161Z,60.03
2018-06-13T07:17:13.231Z,60.65
2018-06-13T07:19:42.090Z,60.04
2018-06-13T07:22:11.257Z,60.16
2018-06-13T07:24:40.404Z,61.52
2018-06-13T07:27:09.270Z,61.28
2018-06-13T07:29:38.382Z,62.25
2018-06-13T07:32:07.318Z,63.84
2018-06-13T07:34:36.146Z,61.91
2018-06-13T07:37:04.825Z,62.38
2018-06-13T07:39:33.701Z,63.89
2018-06-13T07:42:02.926Z,64.70
2018-06-13T07:44:31.602Z,65.68
2018-06-13T07:47:00.812Z,67.73
2018-06-13T07:49:30.024Z,69.72
2018-06-13T07:51:59.307Z,71.14
2018-06-13T07:54:28.590Z,70.28
2018-06-13T07:56:57.874Z,69.58
2018-06-13T07:59:48.871Z,68.97
2018-06-13T08:02:20.436Z,68.00
2018-06-13T08:04:50.155Z,67.61
2018-06-13T08:07:19.434Z,67.13
2018-06-13T08:09:48.493Z,66.54
2018-06-13T08:12:17.352Z,65.21
2018-06-13T08:14:46.559Z,65.30
2018-06-13T08:17:15.372Z,65.33
2018-06-13T08:19:44.458Z,65.90
2018-06-13T08:22:14.175Z,65.87
2018-06-13T08:24:52.852Z,65.11
2018-06-13T08:27:22.242Z,65.13
2018-06-13T08:29:51.485Z,63.41
2018-06-13T08:32:20.446Z,63.67
2018-06-13T08:34:49.417Z,63.55
2018-06-13T08:37:18.509Z,63.41
2018-06-13T08:39:47.360Z,63.48
2018-06-13T08:42:16.292Z,62.92
2018-06-13T08:44:45.370Z,62.42
2018-06-13T08:47:14.302Z,62.55
2018-06-13T08:49:43.197Z,62.30
2018-06-13T08:52:12.038Z,63.44
2018-06-13T08:54:40.958Z,63.57
2018-06-13T08:57:09.923Z,64.02
2018-06-13T08:59:38.815Z,64.27
2018-06-13T09:02:07.651Z,64.02
2018-06-13T09:04:36.674Z,64.10
2018-06-13T09:07:05.727Z,63.85
2018-06-13T09:09:34.835Z,64.18
2018-06-13T09:12:03.829Z,63.97
2018-06-13T09:14:32.835Z,64.56
2018-06-13T09:17:01.957Z,65.00
2018-06-13T09:19:31.109Z,65.83
2018-06-13T09:22:00.024Z,65.60
2018-06-13T09:24:29.030Z,65.41
2018-06-13T09:26:58.208Z,65.13
2018-06-13T09:29:27.341Z,65.27
2018-06-13T09:31:56.260Z,65.46
2018-06-13T09:34:25.169Z,64.94
2018-06-13T09:36:53.922Z,64.48
2018-06-13T09:39:22.757Z,64.71
2018-06-13T09:41:57.075Z,64.52
2018-06-13T09:44:26.155Z,64.45
2018-06-13T09:46:55.297Z,65.15
2018-06-13T09:49:24.656Z,65.68
2018-06-13T09:51:53.752Z,64.53
2018-06-13T09:54:22.781Z,65.09
2018-06-13T09:56:51.720Z,65.46
2018-06-13T09:59:21.282Z,65.33
2018-06-13T10:02:26.702Z,66.06
2018-06-13T10:04:55.723Z,65.40
2018-06-13T10:07:24.898Z,65.28
2018-06-13T10:09:53.753Z,65.53
2018-06-13T10:12:22.758Z,65.14
2018-06-13T10:14:52.098Z,64.64
2018-06-13T10:17:21.152Z,63.70
2018-06-13T10:19:50.101Z,63.78
2018-06-13T10:22:19.169Z,63.71
2018-06-13T10:24:48.268Z,63.22
2018-06-13T10:27:22.145Z,62.77
2018-06-13T10:29:51.359Z,62.70
2018-06-13T10:32:20.586Z,62.42
2018-06-13T10:34:49.567Z,62.33
2018-06-13T10:37:18.447Z,62.53
2018-06-13T10:39:47.719Z,62.67
2018-06-13T10:42:16.848Z,61.85
2018-06-13T10:44:45.567Z,61.52
2018-06-13T10:47:14.422Z,61.97
2018-06-13T10:49:43.603Z,60.92
2018-06-13T10:52:12.526Z,60.37
2018-06-13T10:54:41.602Z,60.92
2018-06-13T10:57:10.596Z,60.43
2018-06-13T10:59:39.530Z,59.75
2018-06-13T11:02:08.777Z,60.72
2018-06-13T11:04:37.798Z,59.37
2018-06-13T11:07:06.761Z,59.41
2018-06-13T11:09:35.878Z,57.72
2018-06-13T11:12:04.697Z,58.40
2018-06-13T11:14:33.534Z,56.06
2018-06-13T11:17:02.720Z,57.07
2018-06-13T11:19:31.753Z,57.02
2018-06-13T11:22:00.842Z,53.67
2018-06-13T11:24:29.637Z,53.21
2018-06-13T11:26:58.700Z,54.09
2018-06-13T11:29:27.718Z,54.87
2018-06-13T11:31:56.695Z,55.10
2018-06-13T11:34:26.005Z,56.30
2018-06-13T11:36:54.874Z,57.34
2018-06-13T11:39:23.806Z,57.13
2018-06-13T11:41:52.658Z,57.24
2018-06-13T11:44:21.625Z,57.78
2018-06-13T11:46:50.607Z,57.67
2018-06-13T11:49:19.739Z,58.50
2018-06-13T11:51:49.030Z,56.71
2018-06-13T11:54:17.952Z,56.11
2018-06-13T11:56:47.359Z,54.74
2018-06-13T11:59:17.458Z,55.18
2018-06-13T12:01:46.394Z,54.86
2018-06-13T12:04:15.908Z,54.25
2018-06-13T12:06:45.295Z,54.25
2018-06-13T12:09:14.318Z,54.54
2018-06-13T12:11:43.156Z,54.39
2018-06-13T12:14:12.315Z,54.14
2018-06-13T12:16:41.181Z,52.71
2018-06-13T12:19:10.464Z,53.47
2018-06-13T12:21:40.202Z,52.94
2018-06-13T12:24:09.185Z,53.35
2018-06-13T12:26:38.467Z,53.64
2018-06-13T12:29:07.390Z,53.61
2018-06-13T12:31:36.275Z,54.25
2018-06-13T12:34:05.145Z,55.69
2018-06-13T12:36:34.109Z,54.29
2018-06-13T12:39:03.586Z,53.85
2018-06-13T12:41:32.619Z,52.94
2018-06-13T12:44:01.540Z,53.38
2018-06-13T12:46:30.452Z,53.03
2018-06-13T12:48:59.600Z,53.44
2018-06-13T12:51:28.772Z,52.32
2018-06-13T12:53:57.910Z,53.23
2018-06-13T12:56:26.743Z,53.04
2018-06-13T12:58:56.113Z,51.82
2018-06-13T13:01:25.597Z,52.16
2018-06-13T13:03:54.490Z,53.06
2018-06-13T13:06:23.261Z,52.73
2018-06-13T13:08:52.322Z,52.70
2018-06-13T13:11:21.357Z,51.97
2018-06-13T13:13:50.647Z,52.45
2018-06-13T13:16:19.762Z,51.18
2018-06-13T13:18:49.332Z,50.90
2018-06-13T13:21:18.720Z,50.23
2018-06-13T13:23:47.881Z,51.65
2018-06-13T13:26:16.774Z,50.26
2018-06-13T13:28:45.499Z,50.49
2018-06-13T13:31:14.409Z,49.46
2018-06-13T13:33:43.592Z,51.04
2018-06-13T13:36:12.668Z,50.95
2018-06-13T13:38:41.757Z,50.94
2018-06-13T13:41:10.692Z,52.09
2018-06-13T13:43:39.567Z,53.23
2018-06-13T13:46:08.606Z,53.33
2018-06-13T13:48:37.476Z,53.25
2018-06-13T13:51:06.582Z,54.76
2018-06-13T13:53:35.454Z,54.65
2018-06-13T13:56:04.259Z,54.90
2018-06-13T13:58:33.485Z,55.45
2018-06-13T14:01:02.406Z,54.99
2018-06-13T14:03:31.362Z,55.26
2018-06-13T14:06:00.333Z,55.84
2018-06-13T14:08:29.676Z,55.43
2018-06-13T14:10:58.495Z,54.92
2018-06-13T14:13:27.407Z,56.22
2018-06-13T14:15:56.649Z,56.29
2018-06-13T14:18:25.581Z,55.50
2018-06-13T14:20:54.445Z,55.96
2018-06-13T14:23:23.411Z,56.87
2018-06-13T14:25:52.522Z,56.63
2018-06-13T14:28:21.694Z,56.05
2018-06-13T14:30:50.877Z,56.00
2018-06-13T14:33:19.971Z,54.73
2018-06-13T14:35:49.101Z,54.01
2018-06-13T14:38:18.019Z,53.70
2018-06-13T14:40:46.934Z,53.42
2018-06-13T14:43:15.813Z,53.33
2018-06-13T14:45:45.489Z,53.26
2018-06-13T14:48:14.407Z,53.05
2018-06-13T14:50:43.557Z,52.75
2018-06-13T14:53:12.454Z,52.65
2018-06-13T14:55:52.614Z,52.77
2018-06-13T14:58:21.490Z,52.74
2018-06-13T15:00:50.654Z,52.49
2018-06-13T15:03:19.493Z,52.03
2018-06-13T15:05:48.560Z,51.73
2018-06-13T15:08:17.635Z,51.05
2018-06-13T15:10:46.518Z,50.78
2018-06-13T15:13:16.615Z,50.31
2018-06-13T15:15:45.826Z,49.68
2018-06-13T15:18:14.766Z,49.67
2018-06-13T15:20:43.716Z,50.88
2018-06-13T15:23:12.834Z,49.69
2018-06-13T15:25:41.775Z,50.18
2018-06-13T15:28:10.555Z,50.26
2018-06-13T15:30:39.570Z,51.79
2018-06-13T15:33:08.831Z,52.13
2018-06-13T15:35:37.768Z,54.27
2018-06-13T15:38:06.797Z,54.48
2018-06-13T15:40:35.950Z,54.72
2018-06-13T15:43:04.967Z,55.40
2018-06-13T15:45:33.921Z,55.53
2018-06-13T15:48:03.001Z,55.57
2018-06-13T15:50:32.711Z,55.93
2018-06-13T15:53:01.887Z,56.19
2018-06-13T15:55:31.028Z,56.50
2018-06-13T15:57:59.829Z,57.02
2018-06-13T16:00:28.690Z,55.58
2018-06-13T16:02:57.700Z,55.04
2018-06-13T16:05:26.842Z,55.25
2018-06-13T16:07:56.119Z,56.03
2018-06-13T16:10:24.997Z,55.64
2018-06-13T16:12:53.998Z,55.88
2018-06-13T16:15:22.921Z,55.55
2018-06-13T16:17:51.781Z,54.63
2018-06-13T16:20:20.599Z,54.86
2018-06-13T16:22:49.522Z,54.78
2018-06-13T16:25:18.697Z,54.58
2018-06-13T16:27:47.417Z,53.93
2018-06-13T16:30:16.853Z,54.39
2018-06-13T16:32:45.580Z,54.83
2018-06-13T16:35:14.569Z,54.98
2018-06-13T16:37:43.448Z,55.03
2018-06-13T16:40:12.351Z,55.27
2018-06-13T16:42:41.353Z,55.51
2018-06-13T16:45:10.162Z,55.12
2018-06-13T16:47:39.228Z,55.42
2018-06-13T16:50:19.865Z,55.28
2018-06-13T16:52:56.418Z,54.97
2018-06-13T16:55:25.639Z,54.25
2018-06-13T16:57:54.454Z,53.65
2018-06-13T17:00:23.695Z,53.87
2018-06-13T17:02:52.893Z,53.87
2018-06-13T17:05:21.682Z,53.82
2018-06-13T17:07:50.794Z,53.91
2018-06-13T17:10:19.571Z,53.81
2018-06-13T17:12:48.526Z,53.61
2018-06-13T17:15:17.410Z,53.75
2018-06-13T17:17:46.415Z,54.24
2018-06-13T17:20:16.560Z,53.50
2018-06-13T17:22:45.387Z,54.66
2018-06-13T17:25:14.343Z,54.57
2018-06-13T17:27:43.810Z,54.47
2018-06-13T17:30:12.701Z,54.24
2018-06-13T17:32:41.621Z,54.25
2018-06-13T17:35:10.651Z,54.19
2018-06-13T17:37:39.668Z,54.05
2018-06-13T17:40:11.781Z,54.15
2018-06-13T17:42:40.790Z,54.06
2018-06-13T17:45:09.840Z,54.75
2018-06-13T17:47:38.988Z,53.68
2018-06-13T17:50:07.774Z,53.77
2018-06-13T17:52:36.560Z,53.40
2018-06-13T17:55:05.538Z,53.71
2018-06-13T17:57:35.722Z,54.18
2018-06-13T18:00:05.191Z,53.68
2018-06-13T18:02:34.169Z,53.43
2018-06-13T18:05:03.087Z,53.24
2018-06-13T18:07:31.852Z,53.76
2018-06-13T18:10:01.228Z,53.44
2018-06-13T18:12:30.267Z,53.88
2018-06-13T18:14:59.176Z,54.23
2018-06-13T18:17:28.138Z,54.24
2018-06-13T18:19:57.086Z,53.91
2018-06-13T18:22:26.036Z,54.38
2018-06-13T18:24:55.235Z,54.60
2018-06-13T18:27:24.094Z,53.96
2018-06-13T18:29:52.960Z,54.24
2018-06-13T18:32:21.801Z,54.07
2018-06-13T18:34:50.645Z,54.52
2018-06-13T18:37:19.573Z,54.86
2018-06-13T18:39:48.762Z,54.72
2018-06-13T18:42:17.887Z,54.74
2018-06-13T18:44:47.170Z,54.93
2018-06-13T18:47:16.121Z,55.30
2018-06-13T18:49:44.943Z,54.88
2018-06-13T18:52:13.890Z,55.11
2018-06-13T18:54:42.700Z,55.11
2018-06-13T18:57:11.430Z,55.59
2018-06-13T18:59:40.131Z,55.91
2018-06-13T19:02:09.925Z,55.44
2018-06-13T19:04:39.401Z,55.94
2018-06-13T19:07:08.381Z,56.87
2018-06-13T19:09:37.326Z,56.18
2018-06-13T19:12:06.554Z,56.40
2018-06-13T19:14:35.745Z,56.41
2018-06-13T19:17:04.597Z,57.01
2018-06-13T19:19:33.425Z,56.54
2018-06-13T19:22:02.292Z,56.80
2018-06-13T19:24:31.402Z,57.29
2018-06-13T19:27:00.368Z,57.01
2018-06-13T19:29:29.395Z,57.19
2018-06-13T19:31:58.255Z,57.14
2018-06-13T19:34:27.034Z,57.10
2018-06-13T19:36:56.254Z,57.21
2018-06-13T19:39:25.290Z,56.93
2018-06-13T19:41:54.131Z,57.55
2018-06-13T19:44:23.038Z,58.00
2018-06-13T19:46:52.325Z,58.11
2018-06-13T19:49:21.746Z,58.59
2018-06-13T19:51:50.706Z,58.68
2018-06-13T19:54:24.576Z,57.72
2018-06-13T19:56:53.665Z,57.60
2018-06-13T19:59:22.690Z,57.72
2018-06-13T20:01:51.732Z,57.31
2018-06-13T20:04:25.811Z,58.23
2018-06-13T20:06:54.612Z,57.61
2018-06-13T20:09:23.677Z,58.43
2018-06-13T20:11:52.557Z,57.44
2018-06-13T20:14:26.559Z,57.54
2018-06-13T20:17:01.180Z,57.82
2018-06-13T20:19:36.614Z,58.22
2018-06-13T20:22:05.575Z,57.69
2018-06-13T20:24:34.596Z,57.90
2018-06-13T20:27:08.655Z,57.51
2018-06-13T20:29:42.925Z,57.65
2018-06-13T20:32:11.879Z,57.75
2018-06-13T20:34:41.008Z,57.26
2018-06-13T20:37:10.110Z,57.93
2018-06-13T20:39:39.053Z,57.07
2018-06-13T20:42:07.971Z,57.87
2018-06-13T20:44:36.987Z,58.42
2018-06-13T20:47:06.034Z,58.13
2018-06-13T20:49:35.038Z,57.64
2018-06-13T20:52:04.482Z,58.02
2018-06-13T20:54:33.481Z,58.33
2018-06-13T20:57:02.495Z,58.38
2018-06-13T20:59:31.458Z,58.19
2018-06-13T21:02:00.488Z,57.41
2018-06-13T21:04:29.543Z,57.96
2018-06-13T21:06:58.601Z,57.71
2018-06-13T21:09:27.875Z,57.54
2018-06-13T21:11:56.958Z,57.74
2018-06-13T21:14:26.179Z,58.85
2018-06-13T21:16:55.178Z,57.84
2018-06-13T21:19:24.134Z,57.75
2018-06-13T21:21:53.223Z,57.44
2018-06-13T21:24:22.438Z,57.56
2018-06-13T21:26:51.346Z,58.47
2018-06-13T21:29:20.439Z,58.39
2018-06-13T21:31:49.338Z,58.51
2018-06-13T21:34:19.104Z,58.00
2018-06-13T21:36:48.309Z,58.35
2018-06-13T21:39:17.418Z,58.75
2018-06-13T21:41:46.339Z,59.08
2018-06-13T21:44:15.272Z,58.82
2018-06-13T21:46:44.119Z,58.55
2018-06-13T21:49:13.094Z,58.25
2018-06-13T21:51:42.235Z,58.25
2018-06-13T21:54:11.387Z,58.23
2018-06-13T21:56:40.458Z,58.28
2018-06-13T21:59:09.286Z,59.17
2018-06-13T22:01:38.189Z,58.08
2018-06-13T22:04:07.210Z,58.85
2018-06-13T22:06:36.241Z,58.26
2018-06-13T22:09:07.744Z,58.38
2018-06-13T22:11:40.685Z,58.92
2018-06-13T22:14:09.646Z,58.75
2018-06-13T22:16:38.664Z,58.43
2018-06-13T22:19:07.843Z,57.84
2018-06-13T22:21:36.684Z,58.74
2018-06-13T22:24:05.403Z,57.78
2018-06-13T22:26:34.617Z,58.31
2018-06-13T22:29:03.656Z,58.99
2018-06-13T22:31:32.524Z,59.42
2018-06-13T22:34:01.394Z,59.53
2018-06-13T22:36:30.175Z,59.77
2018-06-13T22:38:59.108Z,60.20
2018-06-13T22:41:28.083Z,61.21
2018-06-13T22:43:57.052Z,61.75
2018-06-13T22:46:26.497Z,62.01
2018-06-13T22:48:55.386Z,62.18
2018-06-13T22:51:24.202Z,62.68
2018-06-13T22:53:53.177Z,63.50
2018-06-13T22:56:22.148Z,63.84
2018-06-13T22:58:51.158Z,63.54
2018-06-13T23:01:20.180Z,63.69
2018-06-13T23:03:49.111Z,63.10
2018-06-13T23:06:18.230Z,63.59
2018-06-13T23:08:47.202Z,63.08
2018-06-13T23:11:16.010Z,62.99
2018-06-13T23:13:45.045Z,64.02
2018-06-13T23:16:13.889Z,63.19
2018-06-13T23:18:42.815Z,63.25
2018-06-13T23:21:11.672Z,63.20
2018-06-13T23:23:40.593Z,63.84
2018-06-13T23:26:09.501Z,63.45
2018-06-13T23:28:38.570Z,63.24
2018-06-13T23:31:07.549Z,63.43
2018-06-13T23:33:36.514Z,63.73
2018-06-13T23:36:05.472Z,62.41
2018-06-13T23:38:34.239Z,61.83
2018-06-13T23:41:03.011Z,62.42
2018-06-13T23:43:31.943Z,62.65
2018-06-13T23:46:00.867Z,63.54
2018-06-13T23:48:29.712Z,63.19
2018-06-13T23:50:58.564Z,63.87
2018-06-13T23:53:27.482Z,63.80
2018-06-13T23:55:56.458Z,63.85
2018-06-13T23:58:25.229Z,64.22
